Terminal Aerodrome Forecast
Issued by NWS Sioux Falls, SD

Home | Current Version | Previous Version | Text Only | Print | Product List | Glossary Off
Versions: 1 2 3 4 5 6 7 8 9 10 11 12 13 14 15

000
FTUS43 KFSD 150722 AAA
TAFSUX
TAF AMD
KSUX 150722Z 1507/1606 34018G28KT P6SM BKN035
     FM150900 33016G26KT P6SM SCT030
     FM151600 33021G29KT P6SM FEW030
     FM160200 33017KT P6SM FEW030=

USA.gov is the U.S. government's official web portal to all federal, state and local government web resources and services.